Time;durP1;ratioP1;P1;durP2;ratioP2;P2;SDS_P1;SDS_P2;PMS_P1;PMS_P2;Temp;Humidity;BMP_temperature;BMP_pressure;BME280_temperature;BME280_humidity;BME280_pressure;Samples;Min_cycle;Max_cycle;Signal;HPM_P1;HPM_P2
2024/02/19 00:02:15;;;;;;;6.70;4.97;;;10.90;99.90;;;;;;5060698;28;20071;-67
2024/02/19 00:05:01;;;;;;;6.22;4.78;;;10.90;99.90;;;;;;5059687;28;20059;-67
2024/02/19 00:07:47;;;;;;;6.70;5.20;;;10.90;99.90;;;;;;5059686;28;20044;-68
2024/02/19 00:10:34;;;;;;;5.97;4.80;;;10.90;99.90;;;;;;5039187;28;20377;-67
2024/02/19 00:13:23;;;;;;;8.27;5.13;;;10.90;99.90;;;;;;5064477;28;20075;-67
2024/02/19 00:16:09;;;;;;;6.97;4.72;;;10.90;99.90;;;;;;5062570;28;20140;-67
2024/02/19 00:18:55;;;;;;;5.95;4.47;;;10.90;99.90;;;;;;5049300;28;20033;-67
2024/02/19 00:21:41;;;;;;;7.35;4.80;;;10.90;99.90;;;;;;5056365;28;20488;-67
2024/02/19 00:24:27;;;;;;;6.15;4.75;;;10.90;99.90;;;;;;5050317;28;20382;-68
2024/02/19 00:27:13;;;;;;;12.98;5.40;;;10.90;99.90;;;;;;5050117;28;20409;-68
2024/02/19 00:29:59;;;;;;;9.18;5.10;;;10.90;99.90;;;;;;5066488;28;20044;-67
2024/02/19 00:32:45;;;;;;;7.18;4.82;;;10.90;99.90;;;;;;5054091;28;20403;-68
2024/02/19 00:35:32;;;;;;;6.88;4.35;;;10.90;99.90;;;;;;5048167;28;20454;-68
2024/02/19 00:38:18;;;;;;;6.50;5.18;;;10.90;99.90;;;;;;5063236;28;20040;-68
2024/02/19 00:41:04;;;;;;;6.75;4.60;;;10.90;99.90;;;;;;5054816;28;20079;-68
2024/02/19 00:43:50;;;;;;;6.70;4.63;;;10.90;99.90;;;;;;5058014;28;20039;-68
2024/02/19 00:46:36;;;;;;;6.97;4.95;;;10.90;99.90;;;;;;5042312;28;20171;-68
2024/02/19 00:49:22;;;;;;;7.95;5.03;;;10.90;99.90;;;;;;5058333;28;20036;-68
2024/02/19 00:52:08;;;;;;;5.68;4.35;;;11.00;99.90;;;;;;5040625;28;20461;-68
2024/02/19 00:54:57;;;;;;;5.05;4.10;;;10.90;99.90;;;;;;5062859;28;20538;-68
2024/02/19 00:57:43;;;;;;;6.07;4.60;;;10.90;99.90;;;;;;5054479;28;20033;-67
2024/02/19 01:00:29;;;;;;;7.07;4.72;;;11.00;99.90;;;;;;5060165;28;20044;-68
2024/02/19 01:03:16;;;;;;;5.57;4.55;;;11.00;99.90;;;;;;5045768;28;20055;-67
2024/02/19 01:06:02;;;;;;;6.07;4.45;;;11.00;99.90;;;;;;5055545;28;20123;-67
2024/02/19 01:08:49;;;;;;;5.68;4.43;;;11.00;99.90;;;;;;5057188;28;20605;-67
2024/02/19 01:11:35;;;;;;;5.53;4.20;;;11.00;99.90;;;;;;5041026;28;20119;-67
2024/02/19 01:14:20;;;;;;;7.63;5.03;;;11.00;99.90;;;;;;5062168;28;20124;-68
2024/02/19 01:17:08;;;;;;;6.20;4.25;;;11.00;99.90;;;;;;5049549;28;20539;-68
2024/02/19 01:19:56;;;;;;;5.55;3.97;;;11.00;99.90;;;;;;5059499;28;20045;-68
2024/02/19 01:22:41;;;;;;;6.72;3.85;;;11.10;99.90;;;;;;5054704;28;20415;-68
2024/02/19 01:25:27;;;;;;;8.77;4.28;;;11.10;99.90;;;;;;5055604;28;20040;-68
2024/02/19 01:28:14;;;;;;;4.75;4.10;;;11.10;99.90;;;;;;5063157;28;20102;-68
2024/02/19 01:31:00;;;;;;;5.45;3.95;;;11.10;99.90;;;;;;5067195;28;20049;-68
2024/02/19 01:33:46;;;;;;;6.50;4.53;;;11.10;99.90;;;;;;5064064;28;20420;-68
2024/02/19 01:36:32;;;;;;;5.10;4.07;;;11.10;99.90;;;;;;5054073;28;20053;-68
2024/02/19 01:39:18;;;;;;;6.95;3.88;;;11.20;99.90;;;;;;5054780;28;20041;-68
2024/02/19 01:42:05;;;;;;;4.57;3.42;;;11.10;99.90;;;;;;5058562;28;20036;-67
2024/02/19 01:44:51;;;;;;;5.75;3.42;;;11.10;99.90;;;;;;5060909;28;20040;-67
2024/02/19 01:47:37;;;;;;;4.93;4.00;;;11.10;99.90;;;;;;5066670;28;20121;-66
2024/02/19 01:50:24;;;;;;;5.10;3.65;;;11.10;99.90;;;;;;5062438;28;20040;-66
2024/02/19 01:53:12;;;;;;;4.40;3.50;;;11.10;99.90;;;;;;5055764;28;20053;-68
2024/02/19 01:55:58;;;;;;;5.05;3.53;;;11.10;99.90;;;;;;5050160;28;20504;-67
2024/02/19 01:58:44;;;;;;;5.40;3.90;;;11.20;99.90;;;;;;5061988;28;20063;-67
2024/02/19 02:01:31;;;;;;;5.13;3.90;;;11.20;99.90;;;;;;5058494;28;20045;-67
2024/02/19 02:04:18;;;;;;;4.95;3.72;;;11.20;99.90;;;;;;5060662;28;20039;-67
2024/02/19 02:07:05;;;;;;;4.60;3.60;;;11.20;99.90;;;;;;5056169;28;22435;-67
2024/02/19 02:09:51;;;;;;;4.88;3.20;;;11.20;99.90;;;;;;5062849;28;20488;-66
2024/02/19 02:12:37;;;;;;;4.38;2.78;;;11.20;99.90;;;;;;5060915;28;20103;-67
2024/02/19 02:15:23;;;;;;;4.35;3.10;;;11.30;99.90;;;;;;5053428;28;20056;-67
2024/02/19 02:18:11;;;;;;;5.05;3.28;;;11.20;99.90;;;;;;5057697;28;20048;-67
2024/02/19 02:20:58;;;;;;;4.75;3.28;;;11.20;99.90;;;;;;5047753;28;20036;-66
2024/02/19 02:23:44;;;;;;;4.55;3.47;;;11.20;99.90;;;;;;5055857;28;20036;-68
2024/02/19 02:26:30;;;;;;;4.88;3.08;;;11.30;99.90;;;;;;5059001;28;20490;-67
2024/02/19 02:29:16;;;;;;;3.92;3.00;;;11.30;99.90;;;;;;5065519;28;20045;-66
2024/02/19 02:32:02;;;;;;;3.63;2.78;;;11.30;99.90;;;;;;5051230;28;20099;-66
2024/02/19 02:34:48;;;;;;;4.50;2.72;;;11.30;99.90;;;;;;5059828;28;20123;-66
2024/02/19 02:37:34;;;;;;;3.17;2.15;;;11.40;99.90;;;;;;5049901;28;20101;-66
2024/02/19 02:40:20;;;;;;;3.42;2.38;;;11.40;99.90;;;;;;5057858;28;20482;-66
2024/02/19 02:43:06;;;;;;;3.65;2.63;;;11.40;99.90;;;;;;5061441;28;20069;-66
2024/02/19 02:45:52;;;;;;;4.20;2.85;;;11.40;99.90;;;;;;5061141;28;20033;-66
2024/02/19 02:48:38;;;;;;;4.30;2.85;;;11.40;99.90;;;;;;5056327;28;20495;-66
2024/02/19 02:51:24;;;;;;;4.35;3.05;;;11.40;99.90;;;;;;5064630;28;20044;-66
2024/02/19 02:54:10;;;;;;;3.25;2.50;;;11.50;99.90;;;;;;5057624;28;20057;-67
2024/02/19 02:56:56;;;;;;;4.03;2.88;;;11.40;99.90;;;;;;5058701;28;20045;-66
2024/02/19 02:59:42;;;;;;;3.33;2.55;;;11.40;99.90;;;;;;5053335;28;20048;-68
2024/02/19 03:02:28;;;;;;;5.25;2.50;;;11.40;99.90;;;;;;5055427;28;20105;-67
2024/02/19 03:05:14;;;;;;;4.10;2.58;;;11.40;99.90;;;;;;5056603;28;20053;-67
2024/02/19 03:08:00;;;;;;;4.28;2.75;;;11.40;99.90;;;;;;5052000;28;20077;-68
2024/02/19 03:10:45;;;;;;;5.20;2.90;;;11.40;99.90;;;;;;5058026;28;20124;-68
2024/02/19 03:13:31;;;;;;;3.88;2.80;;;11.40;99.90;;;;;;5060784;28;20040;-67
2024/02/19 03:16:17;;;;;;;5.20;2.45;;;11.40;99.90;;;;;;5057802;28;20052;-68
2024/02/19 03:19:05;;;;;;;4.05;3.10;;;11.40;99.90;;;;;;5063185;28;20075;-68
2024/02/19 03:21:50;;;;;;;3.78;2.63;;;11.30;99.90;;;;;;5051192;28;20087;-68
2024/02/19 03:24:36;;;;;;;3.03;2.17;;;11.30;99.90;;;;;;5056238;28;20040;-67
2024/02/19 03:27:22;;;;;;;4.25;2.67;;;11.40;99.90;;;;;;5051242;28;20044;-67
2024/02/19 03:30:09;;;;;;;3.72;2.78;;;11.30;99.90;;;;;;5060724;28;20047;-68
2024/02/19 03:32:56;;;;;;;3.55;2.33;;;11.40;99.90;;;;;;5061080;28;20041;-68
2024/02/19 03:35:42;;;;;;;3.53;2.47;;;11.40;99.90;;;;;;5062089;28;20518;-67
2024/02/19 03:38:28;;;;;;;3.35;2.20;;;11.40;99.90;;;;;;5052692;28;20415;-67
2024/02/19 03:41:13;;;;;;;3.22;2.40;;;11.30;99.90;;;;;;5054104;28;20045;-67
2024/02/19 03:43:59;;;;;;;3.20;2.50;;;11.40;99.90;;;;;;5061144;28;20060;-67
2024/02/19 03:46:45;;;;;;;3.90;2.05;;;11.40;99.90;;;;;;5067397;28;20040;-67
2024/02/19 03:49:31;;;;;;;3.15;2.42;;;11.40;99.90;;;;;;5060253;28;20064;-68
2024/02/19 03:52:19;;;;;;;5.00;2.60;;;11.40;99.90;;;;;;5058836;28;20047;-67
2024/02/19 03:55:05;;;;;;;3.38;2.30;;;11.40;99.90;;;;;;5055301;28;20053;-67
2024/02/19 03:57:51;;;;;;;3.83;2.35;;;11.40;99.90;;;;;;5054582;28;20421;-68
2024/02/19 04:00:37;;;;;;;3.35;2.47;;;11.40;99.90;;;;;;5051008;28;20048;-67
2024/02/19 04:03:23;;;;;;;2.65;2.00;;;11.40;99.90;;;;;;5057524;28;20040;-67
2024/02/19 04:06:09;;;;;;;4.38;2.22;;;11.40;99.90;;;;;;5052512;28;20047;-67
2024/02/19 04:08:55;;;;;;;3.88;2.05;;;11.40;99.90;;;;;;5060104;28;20131;-68
2024/02/19 04:11:41;;;;;;;4.18;1.95;;;11.50;99.90;;;;;;5053929;28;20043;-68
2024/02/19 04:14:27;;;;;;;2.90;1.92;;;11.40;99.90;;;;;;5054024;28;20532;-68
2024/02/19 04:17:13;;;;;;;3.05;1.80;;;11.50;99.90;;;;;;5060081;28;20084;-68
2024/02/19 04:19:59;;;;;;;2.92;1.92;;;11.40;99.90;;;;;;5054023;28;20389;-68
2024/02/19 04:22:45;;;;;;;2.78;1.92;;;11.40;99.90;;;;;;5057028;28;20052;-68
2024/02/19 04:25:31;;;;;;;2.58;1.98;;;11.40;99.90;;;;;;5058952;28;20041;-68
2024/02/19 04:28:17;;;;;;;1.55;1.20;;;11.40;99.90;;;;;;5056208;28;20400;-67
2024/02/19 04:31:03;;;;;;;1.80;1.33;;;11.30;99.90;;;;;;5066305;28;20068;-67
2024/02/19 04:33:49;;;;;;;2.63;1.65;;;11.30;99.90;;;;;;5053150;28;20094;-67
2024/02/19 04:36:35;;;;;;;1.35;1.20;;;11.30;99.90;;;;;;5056195;28;20069;-67
2024/02/19 04:39:21;;;;;;;2.65;1.77;;;11.20;99.90;;;;;;5060348;28;20045;-66
2024/02/19 04:42:07;;;;;;;1.60;1.42;;;11.10;99.90;;;;;;5049283;28;20048;-67
2024/02/19 04:44:53;;;;;;;1.98;1.35;;;11.10;99.90;;;;;;5060756;28;20129;-67
2024/02/19 04:47:38;;;;;;;1.40;1.13;;;11.10;99.90;;;;;;5054191;28;20474;-67
2024/02/19 04:50:24;;;;;;;1.98;1.30;;;11.10;99.90;;;;;;5060612;28;20036;-67
2024/02/19 04:53:10;;;;;;;1.10;1.00;;;11.00;99.90;;;;;;5059468;28;20082;-67
2024/02/19 04:55:56;;;;;;;1.45;0.88;;;10.90;99.90;;;;;;5054957;28;20084;-67
2024/02/19 04:58:42;;;;;;;1.65;1.25;;;10.80;99.90;;;;;;5067273;28;20045;-66
2024/02/19 05:01:31;;;;;;;1.67;1.05;;;10.80;99.90;;;;;;5065834;28;20064;-66
2024/02/19 05:04:18;;;;;;;1.42;1.20;;;10.90;99.90;;;;;;5062474;28;20458;-66
2024/02/19 05:07:04;;;;;;;1.45;1.13;;;10.80;99.90;;;;;;5040625;28;20037;-67
2024/02/19 05:09:50;;;;;;;1.23;1.10;;;10.80;99.90;;;;;;5065820;28;20040;-66
2024/02/19 05:12:36;;;;;;;0.90;0.90;;;10.80;99.90;;;;;;5061010;28;20040;-67
2024/02/19 05:15:22;;;;;;;1.80;1.30;;;10.60;99.90;;;;;;5069477;28;20063;-66
2024/02/19 05:18:08;;;;;;;2.00;1.58;;;10.50;99.90;;;;;;5062274;28;20045;-66
2024/02/19 05:20:54;;;;;;;2.00;1.50;;;10.50;99.90;;;;;;5054626;28;20041;-66
2024/02/19 05:23:40;;;;;;;1.65;1.40;;;10.50;99.90;;;;;;5058756;28;20072;-66
2024/02/19 05:26:26;;;;;;;2.10;1.50;;;10.50;99.90;;;;;;5064247;28;20052;-66
2024/02/19 05:29:12;;;;;;;1.67;1.42;;;10.50;99.90;;;;;;5061185;28;20051;-67
2024/02/19 05:31:59;;;;;;;2.03;1.65;;;10.50;99.90;;;;;;5071129;28;20161;-66
2024/02/19 05:34:45;;;;;;;3.03;1.90;;;10.50;99.90;;;;;;5064162;28;20076;-66
2024/02/19 05:37:32;;;;;;;2.70;1.83;;;10.40;99.90;;;;;;5064321;28;20044;-66
2024/02/19 05:40:17;;;;;;;2.40;1.95;;;10.30;99.90;;;;;;5061698;28;20381;-66
2024/02/19 05:43:04;;;;;;;2.65;1.80;;;10.30;99.90;;;;;;5056945;28;20040;-66
2024/02/19 05:45:50;;;;;;;2.88;1.80;;;10.30;99.90;;;;;;5058742;28;20040;-67
2024/02/19 05:48:36;;;;;;;2.35;1.65;;;10.20;99.90;;;;;;5063331;28;20498;-67
2024/02/19 05:51:22;;;;;;;2.65;2.03;;;10.20;99.90;;;;;;5061447;28;20056;-74
2024/02/19 05:54:08;;;;;;;2.58;1.90;;;10.20;99.90;;;;;;5054460;28;20041;-70
2024/02/19 05:56:54;;;;;;;2.70;2.00;;;10.10;99.90;;;;;;5055436;28;20060;-68
2024/02/19 05:59:39;;;;;;;2.83;1.80;;;10.10;99.90;;;;;;5054505;28;20091;-68
2024/02/19 06:02:25;;;;;;;2.47;1.80;;;10.10;99.90;;;;;;5060731;28;20041;-69
2024/02/19 06:05:11;;;;;;;2.58;1.98;;;10.00;99.90;;;;;;5057864;28;20485;-69
2024/02/19 06:07:57;;;;;;;2.35;1.63;;;10.00;99.90;;;;;;5062655;28;20079;-69
2024/02/19 06:10:46;;;;;;;2.05;1.45;;;9.90;99.90;;;;;;5052668;28;20124;-69
2024/02/19 06:13:32;;;;;;;2.60;1.60;;;9.90;99.90;;;;;;5055682;28;20049;-69
2024/02/19 06:16:18;;;;;;;2.05;1.48;;;9.90;99.90;;;;;;5055973;28;20420;-71
2024/02/19 06:19:05;;;;;;;1.98;1.48;;;9.90;99.90;;;;;;5060286;28;20094;-70
2024/02/19 06:21:51;;;;;;;2.10;1.20;;;9.90;99.90;;;;;;5052932;28;20051;-69
2024/02/19 06:24:37;;;;;;;1.90;1.30;;;9.90;99.90;;;;;;5055941;28;20041;-70
2024/02/19 06:27:23;;;;;;;1.10;1.00;;;9.80;99.90;;;;;;5056462;28;20071;-70
2024/02/19 06:30:09;;;;;;;2.35;1.30;;;9.70;99.90;;;;;;5062172;28;20394;-69
2024/02/19 06:32:55;;;;;;;1.08;0.75;;;9.70;99.90;;;;;;5047947;28;20076;-69
2024/02/19 06:35:41;;;;;;;4.78;1.00;;;9.70;99.90;;;;;;5058312;28;20057;-63
2024/02/19 06:38:27;;;;;;;2.22;0.90;;;9.70;99.90;;;;;;5056936;28;20061;-63
2024/02/19 06:41:13;;;;;;;0.80;0.80;;;9.70;99.90;;;;;;5061522;28;20048;-63
2024/02/19 06:43:59;;;;;;;1.33;0.70;;;9.70;99.90;;;;;;5066114;28;20041;-63
2024/02/19 06:46:45;;;;;;;2.20;0.95;;;9.80;99.90;;;;;;5060432;28;20076;-63
2024/02/19 06:49:30;;;;;;;2.05;1.35;;;9.80;99.90;;;;;;5048071;28;20075;-63
2024/02/19 06:52:23;;;;;;;1.75;1.10;;;9.80;99.90;;;;;;5062463;28;20520;-63
2024/02/19 06:55:09;;;;;;;2.13;1.30;;;9.80;99.90;;;;;;5053236;28;20088;-63
2024/02/19 06:57:55;;;;;;;2.80;1.42;;;9.80;99.90;;;;;;5055788;28;20099;-63
2024/02/19 07:00:40;;;;;;;2.53;1.45;;;9.80;99.90;;;;;;5052518;28;20041;-63
2024/02/19 07:03:26;;;;;;;1.45;1.30;;;9.90;99.90;;;;;;5062080;28;20464;-64
2024/02/19 07:06:12;;;;;;;1.92;1.40;;;9.90;99.90;;;;;;5053941;28;20522;-64
2024/02/19 07:08:58;;;;;;;3.03;1.80;;;9.90;99.90;;;;;;5052872;28;20547;-64
2024/02/19 07:11:44;;;;;;;2.05;1.38;;;9.80;99.90;;;;;;5057030;28;20432;-63
2024/02/19 07:14:30;;;;;;;2.38;1.35;;;9.70;99.90;;;;;;5058622;28;20044;-64
2024/02/19 07:17:16;;;;;;;1.95;1.67;;;9.80;99.90;;;;;;5056836;28;20440;-64
2024/02/19 07:20:03;;;;;;;4.32;1.25;;;9.80;99.90;;;;;;5067640;28;20044;-64
2024/02/19 07:22:49;;;;;;;2.03;1.30;;;9.80;99.90;;;;;;5055030;28;20044;-64
2024/02/19 07:25:35;;;;;;;1.30;1.10;;;9.80;99.90;;;;;;5050875;28;20049;-64
2024/02/19 07:28:21;;;;;;;1.33;1.10;;;9.80;99.90;;;;;;5064088;28;20040;-63
2024/02/19 07:31:07;;;;;;;1.23;1.00;;;9.80;99.90;;;;;;5062933;28;20685;-63
2024/02/19 07:33:55;;;;;;;1.90;1.15;;;9.70;99.90;;;;;;5042711;28;20033;-63
2024/02/19 07:36:40;;;;;;;1.95;1.23;;;9.70;99.90;;;;;;5045145;28;20408;-68
2024/02/19 07:39:26;;;;;;;2.10;1.33;;;9.70;99.90;;;;;;5057173;28;20476;-68
2024/02/19 07:42:12;;;;;;;1.50;1.20;;;9.70;99.90;;;;;;5052730;28;20511;-67
2024/02/19 07:44:58;;;;;;;1.83;1.00;;;9.70;99.90;;;;;;5051034;28;20041;-67
2024/02/19 07:47:44;;;;;;;1.92;1.23;;;9.60;99.90;;;;;;5050267;28;20041;-67
2024/02/19 07:50:30;;;;;;;1.70;1.00;;;9.60;99.90;;;;;;5058486;28;20036;-67
2024/02/19 07:53:16;;;;;;;2.53;1.42;;;9.50;99.90;;;;;;5054539;28;20037;-67
2024/02/19 07:56:06;;;;;;;2.63;1.33;;;9.60;99.90;;;;;;5063922;28;20044;-67
2024/02/19 07:58:52;;;;;;;2.38;1.20;;;9.60;99.90;;;;;;5034155;28;20064;-66
2024/02/19 08:01:38;;;;;;;2.03;1.00;;;9.60;99.90;;;;;;5055775;28;20119;-66
2024/02/19 08:04:27;;;;;;;1.55;1.00;;;9.60;99.90;;;;;;5056862;28;20044;-67
2024/02/19 08:07:13;;;;;;;4.03;1.45;;;9.60;99.90;;;;;;5055516;28;20044;-67
2024/02/19 08:09:59;;;;;;;1.40;0.90;;;9.60;99.90;;;;;;5053001;28;20044;-66
2024/02/19 08:12:45;;;;;;;1.27;1.08;;;9.50;99.90;;;;;;5062498;28;20090;-67
2024/02/19 08:15:30;;;;;;;2.45;1.35;;;9.50;99.90;;;;;;5057480;28;20074;-66
2024/02/19 08:18:17;;;;;;;1.88;1.23;;;9.60;99.90;;;;;;5052152;28;20384;-66
2024/02/19 08:21:03;;;;;;;0.90;0.85;;;9.60;99.90;;;;;;5064652;28;20041;-67
2024/02/19 08:23:49;;;;;;;2.20;0.82;;;9.60;99.90;;;;;;5064113;28;20082;-66
2024/02/19 08:26:35;;;;;;;2.92;0.93;;;9.50;99.90;;;;;;5054341;28;20037;-67
2024/02/19 08:29:21;;;;;;;1.00;0.70;;;9.50;99.90;;;;;;5051564;28;20060;-68
2024/02/19 08:32:07;;;;;;;4.10;1.00;;;9.60;99.90;;;;;;5060113;28;20040;-66
2024/02/19 08:34:53;;;;;;;2.15;0.82;;;9.60;99.90;;;;;;5054824;28;20067;-67
2024/02/19 08:37:39;;;;;;;1.95;1.10;;;9.50;99.90;;;;;;5037772;28;20507;-67
2024/02/19 08:40:25;;;;;;;1.58;1.00;;;9.50;99.90;;;;;;5050871;28;20044;-68
2024/02/19 08:43:11;;;;;;;1.42;0.80;;;9.50;99.90;;;;;;5062338;28;20401;-67
2024/02/19 08:45:57;;;;;;;1.50;0.80;;;9.50;99.90;;;;;;5037327;28;20045;-68
2024/02/19 08:48:43;;;;;;;2.35;1.00;;;9.50;99.90;;;;;;5061223;28;20028;-71
2024/02/19 08:51:30;;;;;;;0.75;0.73;;;9.50;99.90;;;;;;5054298;28;20041;-70
2024/02/19 08:54:16;;;;;;;2.75;1.02;;;9.50;99.90;;;;;;5055976;28;20052;-71
2024/02/19 08:57:02;;;;;;;0.98;0.90;;;9.50;99.90;;;;;;5055823;28;20095;-71
2024/02/19 08:59:48;;;;;;;1.67;1.10;;;9.50;99.90;;;;;;5050648;28;20040;-71
2024/02/19 09:02:34;;;;;;;2.05;1.10;;;9.50;99.90;;;;;;5057633;28;20477;-70
2024/02/19 09:05:22;;;;;;;1.25;0.88;;;9.50;99.90;;;;;;5066076;28;20032;-70
2024/02/19 09:08:10;;;;;;;0.85;0.70;;;9.60;99.90;;;;;;5057017;28;20052;-71
2024/02/19 09:10:56;;;;;;;1.48;1.00;;;9.60;99.90;;;;;;5060691;28;20037;-69
2024/02/19 09:13:42;;;;;;;1.20;1.10;;;9.60;99.90;;;;;;5062461;28;20516;-69
2024/02/19 09:16:28;;;;;;;1.20;0.77;;;9.60;99.90;;;;;;5062790;28;20075;-70
2024/02/19 09:19:16;;;;;;;0.90;0.70;;;9.60;99.90;;;;;;5048620;28;20191;-70
2024/02/19 09:22:02;;;;;;;0.93;0.75;;;9.60;99.90;;;;;;5046449;28;20095;-70
2024/02/19 09:24:50;;;;;;;2.28;1.20;;;9.60;99.90;;;;;;5058182;28;20094;-70
2024/02/19 09:27:36;;;;;;;1.40;1.00;;;9.50;99.90;;;;;;5060171;28;20045;-70
2024/02/19 09:30:22;;;;;;;0.93;0.82;;;9.50;99.90;;;;;;5062439;28;20116;-69
2024/02/19 09:33:08;;;;;;;2.63;1.17;;;9.50;99.90;;;;;;5054216;28;20091;-70
2024/02/19 09:35:53;;;;;;;1.88;1.10;;;9.50;99.90;;;;;;5050250;28;20107;-68
2024/02/19 09:38:40;;;;;;;1.80;1.20;;;9.50;99.90;;;;;;5053115;28;20064;-68
2024/02/19 09:41:26;;;;;;;1.38;1.05;;;9.60;99.90;;;;;;5055323;28;20111;-68
2024/02/19 09:44:12;;;;;;;1.95;1.25;;;9.60;99.90;;;;;;5065252;28;20043;-69
2024/02/19 09:47:02;;;;;;;3.50;1.80;;;9.60;99.90;;;;;;5064036;28;20087;-68
2024/02/19 09:49:48;;;;;;;3.38;1.92;;;9.60;99.90;;;;;;5054003;28;20060;-68
2024/02/19 09:52:36;;;;;;;3.67;1.83;;;9.50;99.90;;;;;;5058756;28;20068;-68
2024/02/19 09:55:22;;;;;;;4.07;1.83;;;9.50;99.90;;;;;;5062411;28;20053;-69
2024/02/19 09:58:08;;;;;;;2.70;1.65;;;9.50;99.90;;;;;;5065149;28;20207;-68
2024/02/19 10:00:54;;;;;;;3.28;1.50;;;9.40;99.90;;;;;;5058498;28;20106;-68
2024/02/19 10:03:40;;;;;;;1.98;1.40;;;9.40;99.90;;;;;;5058793;28;20116;-68
2024/02/19 10:06:36;;;;;;;3.42;1.60;;;9.40;99.90;;;;;;5055959;28;20533;-68
2024/02/19 10:09:22;;;;;;;2.55;1.65;;;9.30;99.90;;;;;;5057079;28;20037;-68
2024/02/19 10:12:08;;;;;;;2.83;1.80;;;9.30;99.90;;;;;;5045897;28;20036;-68
2024/02/19 10:14:54;;;;;;;4.30;2.20;;;9.30;99.90;;;;;;5045550;28;20071;-68
2024/02/19 10:17:40;;;;;;;3.75;1.75;;;9.20;99.90;;;;;;5067052;28;20048;-69
2024/02/19 10:20:28;;;;;;;3.60;1.80;;;9.20;99.90;;;;;;5061275;28;20052;-68
2024/02/19 10:23:14;;;;;;;3.40;1.73;;;9.20;99.90;;;;;;5060693;28;20064;-68
2024/02/19 10:26:00;;;;;;;2.75;1.73;;;9.20;99.90;;;;;;5054394;28;20128;-68
2024/02/19 10:28:46;;;;;;;4.85;2.17;;;9.10;99.90;;;;;;5064015;28;20040;-67
2024/02/19 10:31:32;;;;;;;8.27;2.50;;;9.10;99.90;;;;;;5062177;28;20087;-67
2024/02/19 10:34:19;;;;;;;3.03;1.75;;;9.10;99.90;;;;;;5061842;28;20466;-68
2024/02/19 10:37:05;;;;;;;6.30;1.88;;;9.10;99.90;;;;;;5057902;28;20179;-68
2024/02/19 10:39:51;;;;;;;4.50;1.42;;;9.10;99.90;;;;;;5068436;28;20043;-68
2024/02/19 10:42:38;;;;;;;2.30;1.75;;;9.10;99.90;;;;;;5063131;28;20033;-68
2024/02/19 10:45:24;;;;;;;3.28;1.92;;;9.10;99.90;;;;;;5058974;28;20091;-68
2024/02/19 10:48:11;;;;;;;3.50;1.45;;;9.10;99.90;;;;;;5039731;28;20080;-68
2024/02/19 10:50:57;;;;;;;2.40;1.35;;;9.20;99.90;;;;;;5061626;28;20033;-68
2024/02/19 10:53:43;;;;;;;2.53;1.63;;;9.20;99.90;;;;;;5069046;28;20056;-68
2024/02/19 10:56:36;;;;;;;2.10;1.42;;;9.30;99.90;;;;;;5065044;28;20045;-68
2024/02/19 10:59:24;;;;;;;6.30;2.08;;;9.30;99.90;;;;;;5058260;28;20033;-68
2024/02/19 11:02:18;;;;;;;2.58;1.40;;;9.30;99.90;;;;;;5059637;28;20037;-68
2024/02/19 11:05:13;;;;;;;2.70;1.38;;;9.30;99.90;;;;;;5052732;28;20083;-68
2024/02/19 11:07:59;;;;;;;1.88;1.20;;;9.40;99.90;;;;;;5057492;28;20064;-68
2024/02/19 11:10:48;;;;;;;1.58;1.10;;;9.40;99.90;;;;;;5056824;28;20040;-68
2024/02/19 11:13:37;;;;;;;2.92;1.45;;;9.40;99.90;;;;;;5059002;28;20028;-68
2024/02/19 11:16:28;;;;;;;1.83;0.95;;;9.50;99.90;;;;;;5058269;28;20206;-67
2024/02/19 11:19:14;;;;;;;1.85;1.35;;;9.50;99.90;;;;;;5061626;28;20037;-67
2024/02/19 11:22:06;;;;;;;1.58;1.00;;;9.60;99.90;;;;;;5050999;28;20382;-67
2024/02/19 11:24:52;;;;;;;1.30;0.90;;;9.60;99.90;;;;;;5058921;28;20460;-67
2024/02/19 11:27:39;;;;;;;0.88;0.68;;;9.60;99.90;;;;;;5058116;28;20072;-67
2024/02/19 11:30:26;;;;;;;0.82;0.60;;;9.80;99.90;;;;;;5065473;28;20044;-67
2024/02/19 11:33:13;;;;;;;1.00;0.88;;;9.80;99.90;;;;;;5068535;28;20060;-67
2024/02/19 11:35:59;;;;;;;2.15;1.20;;;9.80;99.90;;;;;;5061810;28;20442;-67
2024/02/19 11:38:45;;;;;;;1.10;0.80;;;9.80;99.90;;;;;;5067365;28;20029;-67
2024/02/19 11:41:31;;;;;;;1.83;0.98;;;9.80;99.90;;;;;;5061333;28;20088;-66
2024/02/19 11:44:17;;;;;;;1.27;1.00;;;9.90;99.90;;;;;;5065911;28;20044;-66
2024/02/19 11:47:03;;;;;;;1.02;0.70;;;9.90;99.90;;;;;;5050700;28;20037;-67
2024/02/19 11:49:49;;;;;;;2.80;1.02;;;9.90;99.90;;;;;;5058006;28;20039;-67
2024/02/19 11:52:35;;;;;;;1.85;1.02;;;10.00;99.90;;;;;;5058671;28;20036;-66
2024/02/19 11:55:23;;;;;;;2.03;1.05;;;10.00;99.90;;;;;;5056886;28;20497;-65
2024/02/19 11:58:10;;;;;;;1.23;0.88;;;10.00;99.90;;;;;;5055896;28;20083;-65
2024/02/19 12:00:57;;;;;;;1.85;1.42;;;9.90;99.90;;;;;;5056342;28;20037;-65
2024/02/19 12:03:42;;;;;;;2.65;1.30;;;10.00;99.90;;;;;;5057229;28;20047;-66
2024/02/19 12:06:33;;;;;;;1.80;1.02;;;10.00;99.90;;;;;;5061909;28;20445;-66
2024/02/19 12:09:19;;;;;;;2.25;1.10;;;10.00;99.90;;;;;;5053762;28;20048;-65
2024/02/19 12:12:05;;;;;;;2.95;1.23;;;10.10;99.90;;;;;;5063830;28;20044;-65
2024/02/19 12:14:51;;;;;;;1.65;1.25;;;10.10;99.90;;;;;;5056696;28;20033;-66
2024/02/19 12:17:40;;;;;;;2.58;1.17;;;10.20;99.90;;;;;;5063324;28;20056;-66
2024/02/19 12:20:26;;;;;;;2.38;1.55;;;10.20;99.90;;;;;;5063821;28;20131;-65
2024/02/19 12:23:14;;;;;;;2.40;1.50;;;10.30;99.90;;;;;;5052323;28;20068;-65
2024/02/19 12:26:00;;;;;;;2.67;1.20;;;10.30;99.90;;;;;;5057773;28;20090;-65
2024/02/19 12:28:46;;;;;;;2.70;1.73;;;10.30;99.90;;;;;;5057861;28;20033;-65
2024/02/19 12:31:32;;;;;;;2.63;1.40;;;10.40;99.90;;;;;;5046948;28;20040;-65
2024/02/19 12:34:18;;;;;;;2.13;1.27;;;10.40;99.90;;;;;;5061221;28;20044;-65
2024/02/19 12:37:04;;;;;;;1.35;1.13;;;10.50;99.90;;;;;;5067706;28;20055;-66
2024/02/19 12:39:50;;;;;;;2.35;1.48;;;10.50;99.90;;;;;;5065340;28;20052;-65
2024/02/19 12:42:36;;;;;;;2.45;1.40;;;10.60;99.90;;;;;;5055459;28;20052;-66
2024/02/19 12:45:21;;;;;;;2.72;1.60;;;10.60;99.90;;;;;;5053732;28;20112;-66
2024/02/19 12:48:07;;;;;;;1.95;1.38;;;10.60;99.90;;;;;;5050019;28;20052;-66
2024/02/19 12:50:54;;;;;;;1.23;1.02;;;10.70;99.90;;;;;;5059895;28;20041;-66
2024/02/19 12:53:40;;;;;;;1.83;0.95;;;10.70;99.90;;;;;;5062563;28;20056;-66
2024/02/19 12:56:26;;;;;;;1.13;1.00;;;10.70;99.90;;;;;;5069852;28;20084;-66
2024/02/19 12:59:11;;;;;;;1.10;1.00;;;10.80;99.90;;;;;;5056036;28;20040;-66
2024/02/19 13:01:57;;;;;;;1.65;1.17;;;10.80;99.90;;;;;;5052163;28;20049;-66
2024/02/19 13:04:43;;;;;;;2.17;1.00;;;10.80;99.90;;;;;;5041986;28;20099;-67
2024/02/19 13:07:31;;;;;;;0.70;0.70;;;10.90;99.90;;;;;;5053569;28;20672;-67
2024/02/19 13:10:17;;;;;;;1.17;0.80;;;10.90;99.90;;;;;;5050991;28;20056;-67
2024/02/19 13:13:03;;;;;;;2.78;1.40;;;10.90;99.90;;;;;;5059861;28;20042;-67
2024/02/19 13:15:49;;;;;;;1.98;1.23;;;10.90;99.90;;;;;;5055751;28;20152;-67
2024/02/19 13:18:35;;;;;;;6.43;2.25;;;10.90;99.90;;;;;;5056560;28;20477;-66
2024/02/19 13:21:22;;;;;;;1.50;1.17;;;10.90;99.90;;;;;;5060068;28;20053;-70
2024/02/19 13:24:08;;;;;;;3.30;1.70;;;10.90;99.90;;;;;;5058494;28;20045;-66
2024/02/19 13:26:55;;;;;;;2.78;1.80;;;11.00;99.90;;;;;;5064999;28;20428;-66
2024/02/19 13:29:41;;;;;;;3.13;1.40;;;11.10;99.90;;;;;;5040502;28;20051;-66
2024/02/19 13:32:27;;;;;;;3.00;1.85;;;11.10;99.90;;;;;;5059584;28;20028;-66
2024/02/19 13:35:13;;;;;;;1.70;1.10;;;11.10;99.90;;;;;;5064008;28;20045;-66
2024/02/19 13:38:03;;;;;;;2.78;1.63;;;11.10;99.90;;;;;;5056321;28;20469;-66
2024/02/19 13:40:49;;;;;;;2.03;1.40;;;11.10;99.90;;;;;;5054815;28;20044;-66
2024/02/19 13:43:35;;;;;;;2.65;1.38;;;11.10;99.90;;;;;;5062356;28;20071;-67
2024/02/19 13:46:21;;;;;;;2.90;1.60;;;11.00;99.90;;;;;;5053554;28;20047;-66
2024/02/19 13:49:07;;;;;;;2.38;1.42;;;10.90;99.90;;;;;;5055122;28;20523;-66
2024/02/19 13:51:53;;;;;;;3.03;1.65;;;10.90;99.90;;;;;;5063194;28;20091;-67
2024/02/19 13:54:40;;;;;;;2.22;1.38;;;11.00;99.90;;;;;;5056055;28;20052;-67
2024/02/19 13:57:26;;;;;;;5.40;1.50;;;11.00;99.90;;;;;;5061780;28;20056;-66
2024/02/19 14:00:12;;;;;;;3.88;1.55;;;11.00;99.90;;;;;;5063756;28;20045;-66
2024/02/19 14:02:58;;;;;;;3.13;1.98;;;11.00;99.90;;;;;;5056854;28;20103;-67
2024/02/19 14:05:44;;;;;;;2.45;1.30;;;11.10;99.90;;;;;;5059199;28;20090;-74
2024/02/19 14:08:30;;;;;;;2.38;1.73;;;11.10;99.90;;;;;;5058229;28;20045;-71
2024/02/19 14:11:16;;;;;;;3.15;1.50;;;11.10;99.90;;;;;;5052904;28;20413;-67
2024/02/19 14:14:03;;;;;;;3.20;1.95;;;11.20;99.90;;;;;;5053310;28;20037;-66
2024/02/19 14:16:50;;;;;;;2.63;1.40;;;11.20;99.90;;;;;;5066346;28;20056;-68
2024/02/19 14:19:36;;;;;;;1.38;1.10;;;11.20;99.90;;;;;;5060861;28;20071;-67
2024/02/19 14:22:21;;;;;;;3.67;1.50;;;11.20;99.90;;;;;;5050954;28;20037;-66
2024/02/19 14:25:10;;;;;;;2.65;1.75;;;11.30;99.90;;;;;;5055960;28;21463;-68
2024/02/19 14:27:57;;;;;;;2.92;1.75;;;11.30;99.90;;;;;;5057361;28;20040;-68
2024/02/19 14:30:43;;;;;;;2.17;1.40;;;11.30;99.90;;;;;;5056782;28;20115;-66